createdAt,value
2018-04-22T00:02:02.873Z,10.63
2018-04-22T00:04:30.396Z,9.90
2018-04-22T00:06:58.679Z,8.60
2018-04-22T00:09:26.953Z,8.83
2018-04-22T00:11:55.270Z,8.97
2018-04-22T00:14:22.787Z,12.63
2018-04-22T00:16:50.281Z,9.17
2018-04-22T00:19:17.785Z,10.73
2018-04-22T00:21:45.294Z,9.20
2018-04-22T00:24:12.840Z,8.13
2018-04-22T00:26:40.352Z,9.70
2018-04-22T00:29:07.858Z,9.10
2018-04-22T00:31:35.369Z,7.93
2018-04-22T00:34:02.865Z,7.80
2018-04-22T00:36:31.133Z,9.97
2018-04-22T00:38:58.633Z,11.20
2018-04-22T00:41:26.132Z,11.40
2018-04-22T00:43:53.638Z,9.43
2018-04-22T00:46:21.138Z,12.70
2018-04-22T00:48:48.629Z,9.03
2018-04-22T00:51:16.895Z,11.53
2018-04-22T00:53:56.307Z,9.23
2018-04-22T00:56:23.805Z,9.80
2018-04-22T00:58:52.064Z,8.57
2018-04-22T01:01:19.573Z,9.13
2018-04-22T01:03:47.133Z,11.63
2018-04-22T01:06:14.639Z,9.43
2018-04-22T01:08:43.660Z,10.63
2018-04-22T01:11:11.941Z,10.07
2018-04-22T01:13:39.458Z,9.30
2018-04-22T01:16:06.975Z,10.33
2018-04-22T01:18:34.477Z,18.57
2018-04-22T01:21:01.984Z,22.97
2018-04-22T01:23:29.484Z,11.83
2018-04-22T01:25:56.985Z,22.13
2018-04-22T01:28:25.258Z,35.33
2018-04-22T01:30:53.542Z,12.53
2018-04-22T01:33:21.833Z,25.73
2018-04-22T01:35:49.337Z,11.03
2018-04-22T01:38:16.837Z,11.13
2018-04-22T01:40:45.117Z,11.03
2018-04-22T01:43:12.640Z,11.67
2018-04-22T01:45:40.146Z,11.70
2018-04-22T01:48:07.669Z,12.03
2018-04-22T01:50:35.161Z,10.83
2018-04-22T01:53:02.678Z,10.80
2018-04-22T01:55:30.202Z,11.30
2018-04-22T01:57:57.713Z,11.00
2018-04-22T02:00:25.995Z,11.80
2018-04-22T02:02:54.273Z,12.30
2018-04-22T02:05:22.550Z,11.20
2018-04-22T02:07:50.825Z,14.57
2018-04-22T02:10:19.102Z,12.07
2018-04-22T02:12:47.369Z,11.73
2018-04-22T02:15:15.638Z,12.90
2018-04-22T02:17:43.138Z,19.20
2018-04-22T02:20:10.641Z,13.37
2018-04-22T02:22:39.666Z,13.60
2018-04-22T02:25:07.937Z,13.10
2018-04-22T02:27:36.218Z,13.13
2018-04-22T02:30:04.492Z,14.13
2018-04-22T02:32:32.770Z,12.70
2018-04-22T02:35:01.050Z,14.47
2018-04-22T02:37:29.326Z,14.27
2018-04-22T02:39:57.610Z,13.63
2018-04-22T02:42:25.893Z,14.07
2018-04-22T02:44:53.397Z,15.10
2018-04-22T02:47:20.922Z,14.67
2018-04-22T02:49:48.433Z,15.10
2018-04-22T02:52:15.939Z,14.37
2018-04-22T02:54:43.450Z,14.63
2018-04-22T02:57:10.952Z,15.27
2018-04-22T02:59:38.458Z,13.93
2018-04-22T03:02:05.971Z,16.07
2018-04-22T03:04:33.485Z,15.53
2018-04-22T03:07:01.758Z,15.23
2018-04-22T03:09:30.028Z,15.70
2018-04-22T03:11:57.529Z,16.50
2018-04-22T03:14:25.046Z,14.60
2018-04-22T03:16:52.545Z,16.13
2018-04-22T03:19:20.061Z,16.43
2018-04-22T03:21:47.585Z,15.97
2018-04-22T03:24:15.090Z,15.97
2018-04-22T03:26:43.356Z,15.17
2018-04-22T03:29:10.862Z,17.80
2018-04-22T03:31:38.381Z,15.83
2018-04-22T03:34:06.646Z,16.67
2018-04-22T03:36:35.682Z,16.00
2018-04-22T03:39:03.199Z,16.83
2018-04-22T03:41:30.705Z,15.33
2018-04-22T03:43:58.214Z,15.70
2018-04-22T03:46:25.714Z,16.20
2018-04-22T03:48:53.245Z,14.80
2018-04-22T03:51:21.529Z,16.23
2018-04-22T03:53:49.818Z,15.17
2018-04-22T03:56:18.090Z,16.70
2018-04-22T03:58:46.374Z,15.27
2018-04-22T04:01:14.642Z,15.97
2018-04-22T04:03:42.927Z,16.70
2018-04-22T04:06:10.429Z,15.00
2018-04-22T04:08:37.937Z,18.10
2018-04-22T04:11:06.209Z,15.00
2018-04-22T04:13:34.485Z,14.57
2018-04-22T04:16:02.770Z,14.93
2018-04-22T04:32:01.020Z,15.87
2018-04-22T04:34:28.542Z,15.47
2018-04-22T04:36:56.045Z,17.67
2018-04-22T04:39:24.321Z,15.73
2018-04-22T04:41:52.618Z,17.70
2018-04-22T04:44:20.145Z,14.50
2018-04-22T04:46:47.647Z,16.23
2018-04-22T04:49:15.169Z,15.13
2018-04-22T04:51:42.689Z,14.77
2018-04-22T04:54:10.193Z,15.00
2018-04-22T04:56:38.461Z,13.50
2018-04-22T04:59:05.981Z,20.67
2018-04-22T05:01:33.483Z,14.27
2018-04-22T05:04:01.761Z,16.30
2018-04-22T05:06:30.029Z,14.70
2018-04-22T05:08:58.301Z,14.43
2018-04-22T05:11:25.804Z,13.93
2018-04-22T05:13:53.309Z,13.13
2018-04-22T05:16:20.837Z,16.33
2018-04-22T05:18:48.367Z,13.23
2018-04-22T05:21:15.869Z,14.97
2018-04-22T05:23:43.396Z,15.83
2018-04-22T05:26:10.898Z,16.83
2018-04-22T05:28:38.402Z,17.83
2018-04-22T05:31:05.926Z,19.60
2018-04-22T05:33:33.425Z,20.00
2018-04-22T05:36:00.968Z,26.13
2018-04-22T05:38:29.261Z,21.40
2018-04-22T05:40:56.763Z,21.87
2018-04-22T05:43:25.658Z,20.43
2018-04-22T05:45:53.190Z,18.37
2018-04-22T05:48:20.697Z,23.60
2018-04-22T05:50:48.974Z,16.33
2018-04-22T05:53:17.258Z,17.47
2018-04-22T05:55:45.537Z,17.37
2018-04-22T05:58:13.830Z,18.73
2018-04-22T06:00:41.334Z,18.50
2018-04-22T06:03:08.838Z,18.07
2018-04-22T06:05:37.101Z,21.77
2018-04-22T06:08:05.381Z,22.40
2018-04-22T06:10:33.661Z,20.07
2018-04-22T06:13:01.942Z,18.83
2018-04-22T06:15:30.201Z,20.00
2018-04-22T06:17:58.481Z,21.57
2018-04-22T06:20:26.011Z,18.90
2018-04-22T06:22:53.554Z,16.70
2018-04-22T06:25:21.044Z,17.13
2018-04-22T06:27:48.542Z,16.23
2018-04-22T06:30:16.053Z,16.60
2018-04-22T06:32:43.557Z,17.10
2018-04-22T06:35:11.065Z,14.87
2018-04-22T06:37:38.562Z,17.03
2018-04-22T06:40:06.846Z,19.33
2018-04-22T06:42:35.113Z,18.20
2018-04-22T06:45:03.389Z,21.03
2018-04-22T06:47:31.666Z,19.77
2018-04-22T06:49:59.945Z,25.33
2018-04-22T06:52:28.229Z,20.43
2018-04-22T06:54:55.759Z,19.17
2018-04-22T06:57:24.035Z,25.43
2018-04-22T06:59:53.794Z,20.70
2018-04-22T07:02:21.310Z,18.33
2018-04-22T07:04:48.817Z,18.20
2018-04-22T07:07:16.329Z,20.50
2018-04-22T07:09:43.827Z,19.13
2018-04-22T07:12:11.337Z,17.20
2018-04-22T07:14:38.830Z,19.80
2018-04-22T07:17:06.353Z,18.50
2018-04-22T07:19:33.886Z,18.17
2018-04-22T07:22:01.385Z,17.07
2018-04-22T07:24:29.673Z,18.37
2018-04-22T07:26:57.938Z,19.83
2018-04-22T07:29:26.206Z,19.53
2018-04-22T07:31:53.707Z,21.23
2018-04-22T07:34:21.209Z,19.60
2018-04-22T07:36:49.478Z,20.13
2018-04-22T07:39:16.993Z,16.93
2018-04-22T07:41:44.510Z,21.10
2018-04-22T07:44:12.005Z,19.23
2018-04-22T07:46:39.501Z,20.10
2018-04-22T07:49:07.001Z,21.40
2018-04-22T07:51:35.277Z,19.57
2018-04-22T07:54:03.537Z,21.57
2018-04-22T07:56:31.037Z,21.17
2018-04-22T07:58:58.554Z,19.43
2018-04-22T08:01:26.850Z,37.07
2018-04-22T08:03:55.158Z,26.93
2018-04-22T08:06:22.658Z,20.20
2018-04-22T08:08:50.921Z,20.73
2018-04-22T08:11:18.450Z,19.50
2018-04-22T08:13:45.988Z,20.90
2018-04-22T08:16:14.314Z,19.57
2018-04-22T08:18:41.785Z,21.73
2018-04-22T08:21:10.077Z,25.23
2018-04-22T08:23:37.584Z,21.97
2018-04-22T08:26:05.101Z,20.60
2018-04-22T08:28:33.390Z,22.90
2018-04-22T08:31:01.695Z,22.73
2018-04-22T08:46:24.783Z,20.90
2018-04-22T08:48:52.305Z,20.43
2018-04-22T08:51:19.803Z,22.40
2018-04-22T08:53:47.311Z,21.00
2018-04-22T08:56:14.821Z,19.73
2018-04-22T08:58:42.337Z,36.67
2018-04-22T09:01:09.837Z,32.00
2018-04-22T09:03:37.340Z,19.73
2018-04-22T09:06:04.833Z,21.77
2018-04-22T09:08:32.338Z,21.10
2018-04-22T09:11:00.618Z,22.70
2018-04-22T09:13:28.891Z,21.47
2018-04-22T09:15:57.165Z,16.20
2018-04-22T09:18:25.433Z,16.07
2018-04-22T09:20:53.695Z,16.70
2018-04-22T09:23:21.221Z,17.10
2018-04-22T09:25:48.725Z,17.43
2018-04-22T09:28:16.998Z,13.90
2018-04-22T09:30:45.285Z,15.03
2018-04-22T09:33:13.627Z,15.17
2018-04-22T09:35:41.079Z,17.37
2018-04-22T09:38:08.592Z,19.80
2018-04-22T09:40:36.142Z,16.37
2018-04-22T09:43:04.457Z,15.87
2018-04-22T09:45:34.055Z,16.47
2018-04-22T09:48:02.289Z,16.20
2018-04-22T09:50:30.557Z,16.10
2018-04-22T09:52:58.062Z,16.13
2018-04-22T09:55:25.565Z,17.73
2018-04-22T09:57:53.094Z,15.40
2018-04-22T10:00:26.233Z,19.07
2018-04-22T10:02:55.334Z,17.20
2018-04-22T10:05:23.617Z,17.00
2018-04-22T10:07:51.889Z,35.03
2018-04-22T10:10:20.154Z,17.60
2018-04-22T10:12:48.446Z,18.53
2018-04-22T10:15:16.725Z,18.60
2018-04-22T10:17:45.019Z,20.50
2018-04-22T10:20:12.521Z,19.77
2018-04-22T10:22:40.049Z,19.33
2018-04-22T10:25:07.551Z,17.03
2018-04-22T10:27:35.053Z,18.60
2018-04-22T10:30:02.565Z,19.60
2018-04-22T10:32:30.079Z,17.70
2018-04-22T10:34:57.594Z,19.33
2018-04-22T10:37:25.878Z,18.70
2018-04-22T10:39:54.141Z,18.47
2018-04-22T10:44:49.483Z,18.80
2018-04-22T10:47:17.747Z,18.80
2018-04-22T10:49:45.261Z,18.07
2018-04-22T10:52:12.762Z,18.30
2018-04-22T10:54:40.269Z,18.33
2018-04-22T10:57:07.786Z,19.53
2018-04-22T10:59:36.102Z,17.80
2018-04-22T11:02:03.676Z,16.40
2018-04-22T11:04:31.142Z,16.27
2018-04-22T11:06:58.649Z,17.80
2018-04-22T11:09:26.913Z,16.63
2018-04-22T11:11:55.189Z,15.67
2018-04-22T11:14:22.807Z,17.93
2018-04-22T11:16:50.340Z,15.97
2018-04-22T11:19:17.841Z,14.63
2018-04-22T11:21:45.354Z,14.40
2018-04-22T11:24:12.870Z,19.47
2018-04-22T11:26:41.141Z,16.57
2018-04-22T11:29:08.633Z,15.07
2018-04-22T11:31:36.897Z,14.03
2018-04-22T11:34:05.177Z,15.67
2018-04-22T11:36:33.461Z,12.97
2018-04-22T11:39:01.726Z,13.20
2018-04-22T11:41:30.011Z,13.17
2018-04-22T11:43:58.301Z,14.40
2018-04-22T11:46:25.806Z,13.37
2018-04-22T11:48:53.305Z,12.73
2018-04-22T11:51:21.584Z,12.60
2018-04-22T11:53:49.872Z,12.90
2018-04-22T11:56:17.376Z,13.07
2018-04-22T11:58:44.891Z,15.30
2018-04-22T12:01:12.392Z,12.73
2018-04-22T12:03:39.916Z,13.00
2018-04-22T12:06:07.446Z,13.20
2018-04-22T12:08:35.721Z,13.00
2018-04-22T12:11:03.981Z,11.63
2018-04-22T12:13:31.498Z,13.27
2018-04-22T12:15:58.994Z,12.27
2018-04-22T12:18:26.493Z,12.77
2018-04-22T12:20:54.003Z,12.30
2018-04-22T12:23:21.526Z,11.53
2018-04-22T12:25:49.029Z,12.40
2018-04-22T12:28:16.548Z,12.83
2018-04-22T12:30:44.101Z,11.73
2018-04-22T12:33:11.605Z,11.73
2018-04-22T12:35:39.198Z,17.40
2018-04-22T12:38:07.481Z,11.90
2018-04-22T12:40:34.986Z,9.60
2018-04-22T12:43:02.494Z,13.70
2018-04-22T12:45:30.011Z,10.07
2018-04-22T12:47:57.509Z,20.97
2018-04-22T12:50:25.784Z,11.27
2018-04-22T12:52:54.085Z,11.20
2018-04-22T12:55:21.587Z,11.80
2018-04-22T12:57:49.093Z,10.80
2018-04-22T13:00:16.619Z,10.40
2018-04-22T13:02:44.125Z,9.43
2018-04-22T13:05:11.628Z,10.93
2018-04-22T13:07:39.141Z,11.07
2018-04-22T13:10:06.678Z,10.97
2018-04-22T13:12:34.185Z,10.40
2018-04-22T13:15:01.679Z,9.97
2018-04-22T13:17:29.949Z,10.50
2018-04-22T13:19:58.213Z,10.00
2018-04-22T13:22:25.721Z,10.63
2018-04-22T13:24:53.235Z,9.67
2018-04-22T13:27:20.741Z,9.43
2018-04-22T13:29:48.258Z,14.53
2018-04-22T13:32:15.765Z,10.03
2018-04-22T13:34:43.269Z,10.83
2018-04-22T13:37:11.537Z,9.80
2018-04-22T13:39:39.154Z,11.00
2018-04-22T13:42:06.654Z,12.80
2018-04-22T13:44:34.171Z,10.63
2018-04-22T13:47:01.668Z,10.37
2018-04-22T13:49:29.187Z,14.67
2018-04-22T13:51:56.681Z,10.57
2018-04-22T13:54:24.326Z,9.47
2018-04-22T13:56:51.802Z,8.60
2018-04-22T13:59:19.290Z,8.80
2018-04-22T14:01:47.541Z,8.93
2018-04-22T14:04:15.034Z,9.40
2018-04-22T14:06:43.301Z,10.17
2018-04-22T14:09:11.569Z,13.17
2018-04-22T14:11:39.833Z,9.93
2018-04-22T14:14:07.332Z,9.60
2018-04-22T14:16:34.828Z,9.70
2018-04-22T14:19:02.359Z,9.13
2018-04-22T14:21:29.857Z,9.87
2018-04-22T14:23:57.350Z,9.80
2018-04-22T14:26:25.629Z,9.10
2018-04-22T14:28:53.901Z,10.63
2018-04-22T14:31:22.169Z,9.50
2018-04-22T14:33:50.437Z,9.70
2018-04-22T14:36:17.937Z,10.57
2018-04-22T14:38:45.453Z,10.97
2018-04-22T14:41:12.941Z,9.93
2018-04-22T14:43:46.521Z,11.73
2018-04-22T14:46:14.790Z,9.60
2018-04-22T14:48:55.013Z,11.40
2018-04-22T14:51:22.511Z,10.37
2018-04-22T14:53:50.785Z,9.83
2018-04-22T14:56:19.057Z,16.47
2018-04-22T14:58:48.088Z,9.97
2018-04-22T15:01:15.593Z,10.77
2018-04-22T15:03:43.091Z,10.63
2018-04-22T15:06:10.597Z,12.67
2018-04-22T15:08:38.090Z,10.73
2018-04-22T15:11:05.623Z,10.60
2018-04-22T15:13:33.134Z,17.73
2018-04-22T15:16:00.635Z,10.50
2018-04-22T15:18:28.134Z,10.60
2018-04-22T15:20:56.410Z,10.13
2018-04-22T15:23:24.693Z,9.63
2018-04-22T15:25:52.956Z,9.60
2018-04-22T15:28:21.213Z,9.23
2018-04-22T15:30:48.712Z,11.07
2018-04-22T15:33:16.226Z,9.57
2018-04-22T15:35:43.846Z,9.57
2018-04-22T15:38:11.341Z,10.00
2018-04-22T15:40:38.837Z,24.77
2018-04-22T15:43:07.115Z,21.00
2018-04-22T15:45:35.416Z,9.20
2018-04-22T15:48:02.921Z,10.47
2018-04-22T15:50:30.645Z,10.07
2018-04-22T15:52:58.137Z,9.87
2018-04-22T15:55:25.758Z,10.10
2018-04-22T15:57:53.282Z,9.07
2018-04-22T16:00:21.553Z,8.70
2018-04-22T16:02:49.051Z,11.80
2018-04-22T16:05:16.716Z,8.77
2018-04-22T16:07:44.279Z,10.70
2018-04-22T16:10:11.849Z,10.90
2018-04-22T16:12:39.354Z,9.53
2018-04-22T16:15:07.621Z,12.67
2018-04-22T16:17:35.138Z,11.20
2018-04-22T16:20:02.673Z,9.73
2018-04-22T16:22:30.209Z,9.83
2018-04-22T16:24:58.482Z,11.03
2018-04-22T16:27:26.797Z,9.50
2018-04-22T16:29:54.297Z,10.90
2018-04-22T16:32:21.918Z,10.53
2018-04-22T16:34:49.446Z,10.10
2018-04-22T16:37:17.713Z,10.13
2018-04-22T16:39:46.001Z,9.23
2018-04-22T16:42:14.273Z,10.10
2018-04-22T16:44:42.542Z,13.67
2018-04-22T16:47:10.805Z,10.77
2018-04-22T16:49:38.309Z,14.90
2018-04-22T16:52:05.810Z,17.90
2018-04-22T16:54:33.338Z,30.67
2018-04-22T16:57:00.835Z,12.83
2018-04-22T16:59:28.344Z,11.37
2018-04-22T17:01:55.882Z,14.73
2018-04-22T17:04:24.152Z,11.10
2018-04-22T17:06:52.436Z,11.57
2018-04-22T17:09:20.721Z,13.13
2018-04-22T17:11:48.991Z,24.17
2018-04-22T17:14:17.267Z,19.00
2018-04-22T17:16:45.553Z,21.47
2018-04-22T17:19:13.082Z,30.87
2018-04-22T17:21:40.582Z,22.60
2018-04-22T17:24:08.138Z,16.27
2018-04-22T17:26:35.657Z,13.03
2018-04-22T17:29:03.154Z,12.60
2018-04-22T17:31:30.682Z,11.43
2018-04-22T17:33:59.230Z,12.40
2018-04-22T17:36:26.763Z,13.33
2018-04-22T17:38:54.293Z,12.33
2018-04-22T17:41:22.566Z,17.70
2018-04-22T17:43:50.837Z,17.73
2018-04-22T17:46:19.101Z,16.10
2018-04-22T17:48:46.603Z,14.60
2018-04-22T17:51:14.120Z,13.77
2018-04-22T17:53:41.634Z,18.03
2018-04-22T17:56:09.148Z,15.13
2018-04-22T17:58:37.437Z,14.03
2018-04-22T18:01:05.709Z,14.77
2018-04-22T18:03:33.978Z,14.93
2018-04-22T18:06:02.265Z,15.07
2018-04-22T18:08:30.541Z,13.43
2018-04-22T18:10:58.816Z,36.07
2018-04-22T18:13:27.084Z,30.00
2018-04-22T18:15:55.362Z,22.47
2018-04-22T18:18:23.637Z,22.37
2018-04-22T18:20:51.901Z,29.83
2018-04-22T18:23:19.418Z,25.50
2018-04-22T18:25:46.930Z,21.23
2018-04-22T18:28:15.207Z,21.63
2018-04-22T18:30:43.478Z,17.70
2018-04-22T18:33:11.765Z,14.57
2018-04-22T18:35:40.060Z,14.67
2018-04-22T18:38:07.579Z,14.00
2018-04-22T18:40:35.093Z,18.13
2018-04-22T18:43:02.617Z,16.77
2018-04-22T18:45:30.889Z,18.03
2018-04-22T18:47:59.176Z,15.50
2018-04-22T18:50:26.714Z,17.00
2018-04-22T18:52:54.325Z,19.03
2018-04-22T18:55:21.826Z,16.30
2018-04-22T18:57:49.355Z,16.57
2018-04-22T19:00:16.857Z,14.00
2018-04-22T19:02:45.153Z,14.23
2018-04-22T19:05:13.459Z,13.97
2018-04-22T19:07:41.013Z,14.57
2018-04-22T19:10:08.525Z,16.77
2018-04-22T19:12:36.825Z,15.83
2018-04-22T19:15:05.102Z,18.70
2018-04-22T19:17:33.381Z,16.60
2018-04-22T19:20:01.653Z,13.40
2018-04-22T19:22:29.937Z,13.20
2018-04-22T19:24:57.475Z,14.40
2018-04-22T19:27:25.741Z,13.40
2018-04-22T19:29:53.247Z,13.97
2018-04-22T19:32:20.790Z,29.20
2018-04-22T19:34:49.065Z,41.33
2018-04-22T19:37:16.586Z,36.50
2018-04-22T19:39:44.861Z,33.10
2018-04-22T19:42:12.362Z,32.40
2018-04-22T19:44:39.937Z,19.90
2018-04-22T19:47:07.452Z,26.43
2018-04-22T19:49:35.751Z,14.97
2018-04-22T19:52:04.017Z,14.17
2018-04-22T19:54:32.295Z,14.53
2018-04-22T19:57:00.573Z,14.93
2018-04-22T19:59:28.845Z,13.80
2018-04-22T20:01:57.115Z,13.57
2018-04-22T20:04:25.431Z,14.53
2018-04-22T20:06:52.944Z,14.87
2018-04-22T20:09:21.227Z,15.40
2018-04-22T20:11:49.497Z,14.93
2018-04-22T20:14:16.997Z,14.83
2018-04-22T20:16:44.505Z,14.30
2018-04-22T20:19:12.064Z,13.90
2018-04-22T20:21:39.562Z,14.43
2018-04-22T20:24:07.071Z,13.93
2018-04-22T20:26:34.574Z,16.17
2018-04-22T20:29:02.839Z,14.57
2018-04-22T20:31:31.117Z,12.80
2018-04-22T20:33:59.385Z,14.27
2018-04-22T20:36:27.665Z,17.73
2018-04-22T20:38:55.957Z,14.60
2018-04-22T20:41:24.504Z,15.17
2018-04-22T20:43:52.006Z,16.40
2018-04-22T20:46:19.525Z,16.90
2018-04-22T20:48:47.029Z,16.83
2018-04-22T20:51:14.554Z,16.30
2018-04-22T20:53:42.825Z,16.10
2018-04-22T20:56:10.320Z,16.60
2018-04-22T20:58:37.838Z,16.97
2018-04-22T21:01:05.426Z,17.67
2018-04-22T21:03:33.686Z,16.33
2018-04-22T21:06:01.975Z,17.27
2018-04-22T21:08:30.251Z,16.00
2018-04-22T21:10:58.518Z,15.93
2018-04-22T21:13:26.793Z,15.70
2018-04-22T21:15:55.082Z,15.90
2018-04-22T21:18:23.363Z,15.17
2018-04-22T21:20:51.642Z,14.30
2018-04-22T21:23:19.909Z,14.43
2018-04-22T21:25:48.178Z,14.83
2018-04-22T21:28:16.478Z,15.27
2018-04-22T21:30:44.750Z,16.17
2018-04-22T21:33:13.021Z,16.30
2018-04-22T21:35:41.301Z,17.00
2018-04-22T21:38:09.585Z,14.93
2018-04-22T21:40:37.086Z,16.20
2018-04-22T21:43:04.589Z,16.53
2018-04-22T21:45:32.853Z,14.97
2018-04-22T21:48:01.138Z,15.77
2018-04-22T21:50:29.447Z,16.20
2018-04-22T21:52:56.945Z,18.57
2018-04-22T21:55:24.448Z,18.67
2018-04-22T21:57:51.949Z,16.77
2018-04-22T22:00:19.469Z,17.77
2018-04-22T22:02:46.970Z,17.50
2018-04-22T22:05:14.466Z,17.80
2018-04-22T22:07:42.729Z,18.50
2018-04-22T22:10:10.241Z,18.60
2018-04-22T22:12:37.741Z,22.03
2018-04-22T22:15:05.258Z,23.37
2018-04-22T22:17:32.766Z,22.57
2018-04-22T22:20:00.267Z,21.53
2018-04-22T22:22:27.786Z,20.33
2018-04-22T22:24:56.051Z,22.40
2018-04-22T22:27:23.567Z,25.63
2018-04-22T22:29:51.063Z,23.23
2018-04-22T22:32:18.565Z,20.20
2018-04-22T22:34:46.078Z,22.40
2018-04-22T22:37:13.570Z,20.70
2018-04-22T22:39:41.845Z,21.53
2018-04-22T22:42:10.107Z,21.70
2018-04-22T22:44:38.374Z,21.73
2018-04-22T22:47:05.873Z,21.67
2018-04-22T22:49:33.371Z,21.60
2018-04-22T22:52:00.882Z,21.60
2018-04-22T22:54:28.385Z,23.50
2018-04-22T22:56:55.894Z,21.27
2018-04-22T22:59:23.406Z,21.87
2018-04-22T23:01:50.924Z,22.17
2018-04-22T23:04:18.425Z,23.90
2018-04-22T23:06:45.947Z,21.10
2018-04-22T23:09:13.449Z,22.95
2018-04-22T23:11:40.973Z,22.20
2018-04-22T23:14:08.489Z,22.50
2018-04-22T23:19:03.837Z,23.60
2018-04-22T23:23:58.424Z,21.60
2018-04-22T23:26:26.690Z,28.10
2018-04-22T23:28:54.969Z,22.75
2018-04-22T23:31:23.257Z,23.70
2018-04-22T23:33:51.541Z,22.40
2018-04-22T23:36:19.062Z,23.50
2018-04-22T23:43:41.452Z,22.55
2018-04-22T23:46:09.745Z,22.80
2018-04-22T23:48:38.014Z,23.55
2018-04-22T23:51:06.290Z,22.60
2018-04-22T23:53:34.562Z,26.60
2018-04-22T23:58:29.137Z,21.20
